sensor_id;sensor_type;location;lat;lon;timestamp;temperature;humidity
11239;DHT22;5677;48.488;13.436;2024-02-23T00:00:07;13.20;50.10
11239;DHT22;5677;48.488;13.436;2024-02-23T00:02:36;13.20;50.10
11239;DHT22;5677;48.488;13.436;2024-02-23T00:05:03;13.20;50.10
11239;DHT22;5677;48.488;13.436;2024-02-23T00:07:30;13.20;50.10
11239;DHT22;5677;48.488;13.436;2024-02-23T00:09:56;13.20;50.10
11239;DHT22;5677;48.488;13.436;2024-02-23T00:12:24;13.20;50.10
11239;DHT22;5677;48.488;13.436;2024-02-23T00:14:51;13.20;50.10
11239;DHT22;5677;48.488;13.436;2024-02-23T00:17:18;13.20;50.20
11239;DHT22;5677;48.488;13.436;2024-02-23T00:19:45;13.20;50.20
11239;DHT22;5677;48.488;13.436;2024-02-23T00:22:12;13.20;50.20
11239;DHT22;5677;48.488;13.436;2024-02-23T00:24:38;13.20;50.10
11239;DHT22;5677;48.488;13.436;2024-02-23T00:27:06;13.10;50.10
11239;DHT22;5677;48.488;13.436;2024-02-23T00:29:34;13.20;50.10
11239;DHT22;5677;48.488;13.436;2024-02-23T00:32:01;13.20;50.20
11239;DHT22;5677;48.488;13.436;2024-02-23T00:34:28;13.20;50.10
11239;DHT22;5677;48.488;13.436;2024-02-23T00:36:57;13.20;50.20
11239;DHT22;5677;48.488;13.436;2024-02-23T00:39:24;13.20;50.10
11239;DHT22;5677;48.488;13.436;2024-02-23T00:41:50;13.10;50.80
11239;DHT22;5677;48.488;13.436;2024-02-23T00:44:17;13.20;50.10
11239;DHT22;5677;48.488;13.436;2024-02-23T00:46:45;13.20;50.10
11239;DHT22;5677;48.488;13.436;2024-02-23T00:49:12;13.10;50.20
11239;DHT22;5677;48.488;13.436;2024-02-23T00:51:39;13.20;50.20
11239;DHT22;5677;48.488;13.436;2024-02-23T00:54:05;13.20;50.20
11239;DHT22;5677;48.488;13.436;2024-02-23T00:56:33;13.10;50.20
11239;DHT22;5677;48.488;13.436;2024-02-23T00:59:00;13.20;50.20
11239;DHT22;5677;48.488;13.436;2024-02-23T01:01:27;13.20;50.20
11239;DHT22;5677;48.488;13.436;2024-02-23T01:03:55;13.20;50.20
11239;DHT22;5677;48.488;13.436;2024-02-23T01:06:23;13.20;50.20
11239;DHT22;5677;48.488;13.436;2024-02-23T01:08:51;13.20;50.30
11239;DHT22;5677;48.488;13.436;2024-02-23T01:11:17;13.20;50.20
11239;DHT22;5677;48.488;13.436;2024-02-23T01:13:44;13.20;50.30
11239;DHT22;5677;48.488;13.436;2024-02-23T01:16:11;13.10;50.20
11239;DHT22;5677;48.488;13.436;2024-02-23T01:18:38;13.10;50.30
11239;DHT22;5677;48.488;13.436;2024-02-23T01:21:06;13.10;50.30
11239;DHT22;5677;48.488;13.436;2024-02-23T01:23:33;13.20;50.30
11239;DHT22;5677;48.488;13.436;2024-02-23T01:25:59;13.10;50.30
11239;DHT22;5677;48.488;13.436;2024-02-23T01:28:27;13.20;50.20
11239;DHT22;5677;48.488;13.436;2024-02-23T01:30:54;13.10;50.30
11239;DHT22;5677;48.488;13.436;2024-02-23T01:33:21;13.10;50.20
11239;DHT22;5677;48.488;13.436;2024-02-23T01:35:48;13.20;50.20
11239;DHT22;5677;48.488;13.436;2024-02-23T01:38:16;13.10;50.30
11239;DHT22;5677;48.488;13.436;2024-02-23T01:40:46;13.10;50.30
11239;DHT22;5677;48.488;13.436;2024-02-23T01:43:13;13.10;50.30
11239;DHT22;5677;48.488;13.436;2024-02-23T01:45:39;13.10;50.30
11239;DHT22;5677;48.488;13.436;2024-02-23T01:48:07;13.10;50.20
11239;DHT22;5677;48.488;13.436;2024-02-23T01:50:34;13.10;50.20
11239;DHT22;5677;48.488;13.436;2024-02-23T01:53:02;13.10;50.30
11239;DHT22;5677;48.488;13.436;2024-02-23T01:55:31;13.10;50.20
11239;DHT22;5677;48.488;13.436;2024-02-23T01:57:59;13.10;50.30
11239;DHT22;5677;48.488;13.436;2024-02-23T02:00:26;13.10;50.30
11239;DHT22;5677;48.488;13.436;2024-02-23T02:02:53;13.10;50.30
11239;DHT22;5677;48.488;13.436;2024-02-23T02:05:20;13.10;50.30
11239;DHT22;5677;48.488;13.436;2024-02-23T02:07:47;13.10;50.30
11239;DHT22;5677;48.488;13.436;2024-02-23T02:10:16;13.10;50.40
11239;DHT22;5677;48.488;13.436;2024-02-23T02:12:45;13.10;50.30
11239;DHT22;5677;48.488;13.436;2024-02-23T02:15:12;13.10;50.30
11239;DHT22;5677;48.488;13.436;2024-02-23T02:17:38;13.10;50.30
11239;DHT22;5677;48.488;13.436;2024-02-23T02:20:07;13.10;50.30
11239;DHT22;5677;48.488;13.436;2024-02-23T02:22:37;13.10;50.70
11239;DHT22;5677;48.488;13.436;2024-02-23T02:25:04;13.10;50.30
11239;DHT22;5677;48.488;13.436;2024-02-23T02:27:31;13.10;50.30
11239;DHT22;5677;48.488;13.436;2024-02-23T02:29:59;13.10;50.30
11239;DHT22;5677;48.488;13.436;2024-02-23T02:32:26;13.10;50.30
11239;DHT22;5677;48.488;13.436;2024-02-23T02:34:53;13.10;50.30
11239;DHT22;5677;48.488;13.436;2024-02-23T02:37:19;13.10;50.30
11239;DHT22;5677;48.488;13.436;2024-02-23T02:39:46;13.10;50.30
11239;DHT22;5677;48.488;13.436;2024-02-23T02:42:13;13.10;50.30
11239;DHT22;5677;48.488;13.436;2024-02-23T02:44:40;13.10;50.30
11239;DHT22;5677;48.488;13.436;2024-02-23T02:47:08;13.10;50.30
11239;DHT22;5677;48.488;13.436;2024-02-23T02:49:34;13.10;50.30
11239;DHT22;5677;48.488;13.436;2024-02-23T02:52:01;13.10;50.30
11239;DHT22;5677;48.488;13.436;2024-02-23T02:54:28;13.10;50.30
11239;DHT22;5677;48.488;13.436;2024-02-23T02:56:54;13.10;50.30
11239;DHT22;5677;48.488;13.436;2024-02-23T02:59:22;13.10;50.30
11239;DHT22;5677;48.488;13.436;2024-02-23T03:01:49;13.10;50.30
11239;DHT22;5677;48.488;13.436;2024-02-23T03:04:17;13.10;50.30
11239;DHT22;5677;48.488;13.436;2024-02-23T03:06:44;13.10;50.30
11239;DHT22;5677;48.488;13.436;2024-02-23T03:09:11;13.10;50.30
11239;DHT22;5677;48.488;13.436;2024-02-23T03:11:37;13.10;50.30
11239;DHT22;5677;48.488;13.436;2024-02-23T03:14:04;13.10;50.30
11239;DHT22;5677;48.488;13.436;2024-02-23T03:16:31;13.00;50.30
11239;DHT22;5677;48.488;13.436;2024-02-23T03:18:59;13.10;50.40
11239;DHT22;5677;48.488;13.436;2024-02-23T03:21:27;13.00;50.30
11239;DHT22;5677;48.488;13.436;2024-02-23T03:23:54;13.10;50.40
11239;DHT22;5677;48.488;13.436;2024-02-23T03:26:21;13.00;50.30
11239;DHT22;5677;48.488;13.436;2024-02-23T03:28:47;13.00;50.20
11239;DHT22;5677;48.488;13.436;2024-02-23T03:31:15;13.00;50.30
11239;DHT22;5677;48.488;13.436;2024-02-23T03:33:41;13.00;50.30
11239;DHT22;5677;48.488;13.436;2024-02-23T03:36:08;13.00;50.20
11239;DHT22;5677;48.488;13.436;2024-02-23T03:38:36;13.00;50.30
11239;DHT22;5677;48.488;13.436;2024-02-23T03:41:03;13.00;50.30
11239;DHT22;5677;48.488;13.436;2024-02-23T03:43:30;13.00;50.30
11239;DHT22;5677;48.488;13.436;2024-02-23T03:45:57;13.00;50.30
11239;DHT22;5677;48.488;13.436;2024-02-23T03:48:23;13.00;50.30
11239;DHT22;5677;48.488;13.436;2024-02-23T03:50:50;13.00;50.30
11239;DHT22;5677;48.488;13.436;2024-02-23T03:53:17;13.00;50.30
11239;DHT22;5677;48.488;13.436;2024-02-23T03:55:45;13.10;50.40
11239;DHT22;5677;48.488;13.436;2024-02-23T03:58:12;13.00;50.30
11239;DHT22;5677;48.488;13.436;2024-02-23T04:00:38;13.00;50.30
11239;DHT22;5677;48.488;13.436;2024-02-23T04:03:05;13.00;50.30
11239;DHT22;5677;48.488;13.436;2024-02-23T04:05:32;13.00;50.30
11239;DHT22;5677;48.488;13.436;2024-02-23T04:07:58;13.00;50.30
11239;DHT22;5677;48.488;13.436;2024-02-23T04:10:25;13.00;50.40
11239;DHT22;5677;48.488;13.436;2024-02-23T04:12:53;13.00;50.30
11239;DHT22;5677;48.488;13.436;2024-02-23T04:15:20;13.00;50.40
11239;DHT22;5677;48.488;13.436;2024-02-23T04:17:47;13.10;50.40
11239;DHT22;5677;48.488;13.436;2024-02-23T04:20:14;13.10;50.40
11239;DHT22;5677;48.488;13.436;2024-02-23T04:22:41;13.00;50.30
11239;DHT22;5677;48.488;13.436;2024-02-23T04:25:08;13.00;50.30
11239;DHT22;5677;48.488;13.436;2024-02-23T04:27:35;13.00;50.30
11239;DHT22;5677;48.488;13.436;2024-02-23T04:30:03;13.00;50.40
11239;DHT22;5677;48.488;13.436;2024-02-23T04:32:30;13.00;50.30
11239;DHT22;5677;48.488;13.436;2024-02-23T04:34:57;13.00;50.30
11239;DHT22;5677;48.488;13.436;2024-02-23T04:37:24;13.00;50.30
11239;DHT22;5677;48.488;13.436;2024-02-23T04:39:50;13.00;50.40
11239;DHT22;5677;48.488;13.436;2024-02-23T04:42:17;13.00;50.40
11239;DHT22;5677;48.488;13.436;2024-02-23T04:44:44;13.00;50.30
11239;DHT22;5677;48.488;13.436;2024-02-23T04:47:12;13.00;50.30
11239;DHT22;5677;48.488;13.436;2024-02-23T04:49:39;13.00;50.40
11239;DHT22;5677;48.488;13.436;2024-02-23T04:52:07;13.00;50.30
11239;DHT22;5677;48.488;13.436;2024-02-23T04:54:34;13.00;50.30
11239;DHT22;5677;48.488;13.436;2024-02-23T04:57:01;13.00;50.30
11239;DHT22;5677;48.488;13.436;2024-02-23T04:59:28;13.00;50.30
11239;DHT22;5677;48.488;13.436;2024-02-23T05:01:57;13.00;50.40
11239;DHT22;5677;48.488;13.436;2024-02-23T05:04:25;13.00;50.30
11239;DHT22;5677;48.488;13.436;2024-02-23T05:06:52;13.00;50.30
11239;DHT22;5677;48.488;13.436;2024-02-23T05:09:19;13.00;50.30
11239;DHT22;5677;48.488;13.436;2024-02-23T05:11:46;13.00;50.40
11239;DHT22;5677;48.488;13.436;2024-02-23T05:14:13;13.00;50.40
11239;DHT22;5677;48.488;13.436;2024-02-23T05:16:40;13.00;50.40
11239;DHT22;5677;48.488;13.436;2024-02-23T05:19:07;13.00;50.30
11239;DHT22;5677;48.488;13.436;2024-02-23T05:21:35;12.90;50.40
11239;DHT22;5677;48.488;13.436;2024-02-23T05:24:02;13.00;50.40
11239;DHT22;5677;48.488;13.436;2024-02-23T05:26:31;12.90;50.40
11239;DHT22;5677;48.488;13.436;2024-02-23T05:28:58;13.00;50.40
11239;DHT22;5677;48.488;13.436;2024-02-23T05:31:44;13.00;50.30
11239;DHT22;5677;48.488;13.436;2024-02-23T05:34:10;13.00;50.30
11239;DHT22;5677;48.488;13.436;2024-02-23T05:36:39;13.00;50.40
11239;DHT22;5677;48.488;13.436;2024-02-23T05:39:05;13.00;50.40
11239;DHT22;5677;48.488;13.436;2024-02-23T05:41:33;12.90;50.40
11239;DHT22;5677;48.488;13.436;2024-02-23T05:43:59;13.00;50.40
11239;DHT22;5677;48.488;13.436;2024-02-23T05:46:26;12.90;50.40
11239;DHT22;5677;48.488;13.436;2024-02-23T05:48:53;12.90;50.40
11239;DHT22;5677;48.488;13.436;2024-02-23T05:51:19;12.90;50.30
11239;DHT22;5677;48.488;13.436;2024-02-23T05:53:47;12.90;50.30
11239;DHT22;5677;48.488;13.436;2024-02-23T05:56:15;12.90;50.40
11239;DHT22;5677;48.488;13.436;2024-02-23T05:58:41;12.90;50.40
11239;DHT22;5677;48.488;13.436;2024-02-23T06:01:08;12.90;50.40
11239;DHT22;5677;48.488;13.436;2024-02-23T06:03:35;12.90;50.40
11239;DHT22;5677;48.488;13.436;2024-02-23T06:06:02;12.90;50.40
11239;DHT22;5677;48.488;13.436;2024-02-23T06:08:29;12.90;50.40
11239;DHT22;5677;48.488;13.436;2024-02-23T06:10:57;12.90;50.40
11239;DHT22;5677;48.488;13.436;2024-02-23T06:13:25;13.00;50.40
11239;DHT22;5677;48.488;13.436;2024-02-23T06:15:52;12.90;50.30
11239;DHT22;5677;48.488;13.436;2024-02-23T06:18:19;12.90;50.40
11239;DHT22;5677;48.488;13.436;2024-02-23T06:20:46;12.90;50.40
11239;DHT22;5677;48.488;13.436;2024-02-23T06:23:12;13.00;50.40
11239;DHT22;5677;48.488;13.436;2024-02-23T06:25:39;12.90;50.40
11239;DHT22;5677;48.488;13.436;2024-02-23T06:28:07;12.90;50.40
11239;DHT22;5677;48.488;13.436;2024-02-23T06:30:34;12.90;50.40
11239;DHT22;5677;48.488;13.436;2024-02-23T06:33:01;12.90;50.40
11239;DHT22;5677;48.488;13.436;2024-02-23T06:35:29;12.90;50.40
11239;DHT22;5677;48.488;13.436;2024-02-23T06:37:56;12.90;50.40
11239;DHT22;5677;48.488;13.436;2024-02-23T06:40:23;12.90;50.40
11239;DHT22;5677;48.488;13.436;2024-02-23T06:42:50;12.90;50.40
11239;DHT22;5677;48.488;13.436;2024-02-23T06:45:18;12.90;50.40
11239;DHT22;5677;48.488;13.436;2024-02-23T06:47:51;12.90;50.40
11239;DHT22;5677;48.488;13.436;2024-02-23T06:50:18;12.90;50.50
11239;DHT22;5677;48.488;13.436;2024-02-23T06:52:44;12.90;50.40
11239;DHT22;5677;48.488;13.436;2024-02-23T06:55:12;12.90;50.50
11239;DHT22;5677;48.488;13.436;2024-02-23T06:57:39;12.90;50.50
11239;DHT22;5677;48.488;13.436;2024-02-23T07:00:07;12.90;50.50
11239;DHT22;5677;48.488;13.436;2024-02-23T07:02:35;12.90;50.50
11239;DHT22;5677;48.488;13.436;2024-02-23T07:05:03;12.90;50.50
11239;DHT22;5677;48.488;13.436;2024-02-23T07:07:31;12.90;50.50
11239;DHT22;5677;48.488;13.436;2024-02-23T07:09:58;12.90;50.50
11239;DHT22;5677;48.488;13.436;2024-02-23T07:12:25;12.90;50.40
11239;DHT22;5677;48.488;13.436;2024-02-23T07:14:54;12.90;50.50
11239;DHT22;5677;48.488;13.436;2024-02-23T07:17:21;12.90;50.50
11239;DHT22;5677;48.488;13.436;2024-02-23T07:19:49;12.90;50.50
11239;DHT22;5677;48.488;13.436;2024-02-23T07:22:18;12.90;50.50
11239;DHT22;5677;48.488;13.436;2024-02-23T07:24:45;12.90;50.50
11239;DHT22;5677;48.488;13.436;2024-02-23T07:27:12;13.00;50.50
11239;DHT22;5677;48.488;13.436;2024-02-23T07:29:39;13.00;50.40
11239;DHT22;5677;48.488;13.436;2024-02-23T07:32:06;13.00;50.50
11239;DHT22;5677;48.488;13.436;2024-02-23T07:34:33;12.90;50.50
11239;DHT22;5677;48.488;13.436;2024-02-23T07:37:01;13.00;50.40
11239;DHT22;5677;48.488;13.436;2024-02-23T07:39:28;13.00;50.40
11239;DHT22;5677;48.488;13.436;2024-02-23T07:41:55;13.00;50.50
11239;DHT22;5677;48.488;13.436;2024-02-23T07:44:21;13.00;50.40
11239;DHT22;5677;48.488;13.436;2024-02-23T07:46:48;12.90;50.40
11239;DHT22;5677;48.488;13.436;2024-02-23T07:49:17;12.90;50.40
11239;DHT22;5677;48.488;13.436;2024-02-23T07:51:44;13.00;50.40
11239;DHT22;5677;48.488;13.436;2024-02-23T07:54:12;13.00;50.40
11239;DHT22;5677;48.488;13.436;2024-02-23T07:56:39;13.00;50.40
11239;DHT22;5677;48.488;13.436;2024-02-23T07:59:06;13.00;50.40
11239;DHT22;5677;48.488;13.436;2024-02-23T08:01:32;13.00;50.30
11239;DHT22;5677;48.488;13.436;2024-02-23T08:03:59;13.00;50.30
11239;DHT22;5677;48.488;13.436;2024-02-23T08:06:26;13.00;50.30
11239;DHT22;5677;48.488;13.436;2024-02-23T08:08:53;13.00;50.30
11239;DHT22;5677;48.488;13.436;2024-02-23T08:11:22;13.00;50.30
11239;DHT22;5677;48.488;13.436;2024-02-23T08:13:48;13.00;50.30
11239;DHT22;5677;48.488;13.436;2024-02-23T08:16:16;13.00;50.40
11239;DHT22;5677;48.488;13.436;2024-02-23T08:18:43;13.00;50.40
11239;DHT22;5677;48.488;13.436;2024-02-23T08:21:10;13.00;50.30
11239;DHT22;5677;48.488;13.436;2024-02-23T08:23:36;13.00;50.30
11239;DHT22;5677;48.488;13.436;2024-02-23T08:26:03;13.00;50.20
11239;DHT22;5677;48.488;13.436;2024-02-23T08:28:31;13.00;50.20
11239;DHT22;5677;48.488;13.436;2024-02-23T08:30:58;13.10;50.40
11239;DHT22;5677;48.488;13.436;2024-02-23T08:33:25;13.00;50.20
11239;DHT22;5677;48.488;13.436;2024-02-23T08:35:51;13.10;50.30
11239;DHT22;5677;48.488;13.436;2024-02-23T08:38:18;13.10;50.30
11239;DHT22;5677;48.488;13.436;2024-02-23T08:40:45;13.00;50.20
11239;DHT22;5677;48.488;13.436;2024-02-23T08:43:12;13.00;50.20
11239;DHT22;5677;48.488;13.436;2024-02-23T08:45:41;13.10;50.30
11239;DHT22;5677;48.488;13.436;2024-02-23T08:48:08;13.00;50.20
11239;DHT22;5677;48.488;13.436;2024-02-23T08:50:34;13.00;50.20
11239;DHT22;5677;48.488;13.436;2024-02-23T08:53:03;13.10;50.90
11239;DHT22;5677;48.488;13.436;2024-02-23T08:55:30;13.10;50.20
11239;DHT22;5677;48.488;13.436;2024-02-23T08:57:58;13.10;50.20
11239;DHT22;5677;48.488;13.436;2024-02-23T09:00:25;13.10;50.10
11239;DHT22;5677;48.488;13.436;2024-02-23T09:02:53;13.20;50.10
11239;DHT22;5677;48.488;13.436;2024-02-23T09:05:20;13.20;50.00
11239;DHT22;5677;48.488;13.436;2024-02-23T09:07:47;13.20;49.90
11239;DHT22;5677;48.488;13.436;2024-02-23T09:10:13;13.30;49.90
11239;DHT22;5677;48.488;13.436;2024-02-23T09:12:40;13.30;49.80
11239;DHT22;5677;48.488;13.436;2024-02-23T09:15:08;13.40;49.70
11239;DHT22;5677;48.488;13.436;2024-02-23T09:17:34;13.40;49.50
11239;DHT22;5677;48.488;13.436;2024-02-23T09:20:03;13.40;49.30
11239;DHT22;5677;48.488;13.436;2024-02-23T09:22:30;13.50;49.30
11239;DHT22;5677;48.488;13.436;2024-02-23T09:24:56;13.50;49.10
11239;DHT22;5677;48.488;13.436;2024-02-23T09:27:23;13.60;48.90
11239;DHT22;5677;48.488;13.436;2024-02-23T09:29:50;13.60;48.80
11239;DHT22;5677;48.488;13.436;2024-02-23T09:32:17;13.60;48.70
11239;DHT22;5677;48.488;13.436;2024-02-23T09:34:43;13.70;48.80
11239;DHT22;5677;48.488;13.436;2024-02-23T09:37:11;13.70;48.70
11239;DHT22;5677;48.488;13.436;2024-02-23T09:39:38;13.60;48.60
11239;DHT22;5677;48.488;13.436;2024-02-23T09:42:09;13.60;48.70
11239;DHT22;5677;48.488;13.436;2024-02-23T09:44:37;13.60;48.70
11239;DHT22;5677;48.488;13.436;2024-02-23T09:47:05;13.60;48.70
11239;DHT22;5677;48.488;13.436;2024-02-23T09:49:38;13.60;48.80
11239;DHT22;5677;48.488;13.436;2024-02-23T09:52:07;13.50;48.90
11239;DHT22;5677;48.488;13.436;2024-02-23T09:54:36;13.50;48.90
11239;DHT22;5677;48.488;13.436;2024-02-23T09:57:06;13.50;49.00
11239;DHT22;5677;48.488;13.436;2024-02-23T09:59:34;13.50;49.10
11239;DHT22;5677;48.488;13.436;2024-02-23T10:02:01;13.50;49.20
11239;DHT22;5677;48.488;13.436;2024-02-23T10:04:28;13.50;49.20
11239;DHT22;5677;48.488;13.436;2024-02-23T10:06:56;13.50;49.20
11239;DHT22;5677;48.488;13.436;2024-02-23T10:09:22;13.40;49.20
11239;DHT22;5677;48.488;13.436;2024-02-23T10:11:53;13.40;49.20
11239;DHT22;5677;48.488;13.436;2024-02-23T10:14:20;13.40;49.20
11239;DHT22;5677;48.488;13.436;2024-02-23T10:16:47;13.40;49.30
11239;DHT22;5677;48.488;13.436;2024-02-23T10:19:13;13.40;49.30
11239;DHT22;5677;48.488;13.436;2024-02-23T10:21:40;13.40;49.30
11239;DHT22;5677;48.488;13.436;2024-02-23T10:24:07;13.40;49.30
11239;DHT22;5677;48.488;13.436;2024-02-23T10:26:34;13.40;49.30
11239;DHT22;5677;48.488;13.436;2024-02-23T10:29:02;13.40;49.40
11239;DHT22;5677;48.488;13.436;2024-02-23T10:31:29;13.40;49.40
11239;DHT22;5677;48.488;13.436;2024-02-23T10:33:59;13.40;49.40
11239;DHT22;5677;48.488;13.436;2024-02-23T10:36:29;13.40;49.40
11239;DHT22;5677;48.488;13.436;2024-02-23T10:38:57;13.40;49.40
11239;DHT22;5677;48.488;13.436;2024-02-23T10:41:29;13.40;49.40
11239;DHT22;5677;48.488;13.436;2024-02-23T10:44:02;13.40;49.40
11239;DHT22;5677;48.488;13.436;2024-02-23T10:46:31;13.40;49.50
11239;DHT22;5677;48.488;13.436;2024-02-23T10:48:58;13.40;49.40
11239;DHT22;5677;48.488;13.436;2024-02-23T10:51:25;13.40;49.50
11239;DHT22;5677;48.488;13.436;2024-02-23T10:53:53;13.30;49.50
11239;DHT22;5677;48.488;13.436;2024-02-23T10:56:20;13.40;49.50
11239;DHT22;5677;48.488;13.436;2024-02-23T10:58:47;13.40;49.50
11239;DHT22;5677;48.488;13.436;2024-02-23T11:01:16;13.40;49.50
11239;DHT22;5677;48.488;13.436;2024-02-23T11:03:44;13.40;49.50
11239;DHT22;5677;48.488;13.436;2024-02-23T11:06:15;13.40;49.50
11239;DHT22;5677;48.488;13.436;2024-02-23T11:08:46;13.40;49.50
11239;DHT22;5677;48.488;13.436;2024-02-23T11:11:16;13.40;49.50
11239;DHT22;5677;48.488;13.436;2024-02-23T11:13:44;13.40;49.50
11239;DHT22;5677;48.488;13.436;2024-02-23T11:16:22;13.40;49.50
11239;DHT22;5677;48.488;13.436;2024-02-23T11:18:49;13.30;49.60
11239;DHT22;5677;48.488;13.436;2024-02-23T11:21:16;13.40;49.50
11239;DHT22;5677;48.488;13.436;2024-02-23T11:23:43;13.40;49.60
11239;DHT22;5677;48.488;13.436;2024-02-23T11:26:10;13.40;49.60
11239;DHT22;5677;48.488;13.436;2024-02-23T11:28:46;13.40;49.60
11239;DHT22;5677;48.488;13.436;2024-02-23T11:31:14;13.40;49.60
11239;DHT22;5677;48.488;13.436;2024-02-23T11:33:48;13.40;49.60
11239;DHT22;5677;48.488;13.436;2024-02-23T11:36:22;13.30;49.60
11239;DHT22;5677;48.488;13.436;2024-02-23T11:38:52;13.40;49.60
11239;DHT22;5677;48.488;13.436;2024-02-23T11:41:21;13.40;49.60
11239;DHT22;5677;48.488;13.436;2024-02-23T11:43:49;13.30;49.60
11239;DHT22;5677;48.488;13.436;2024-02-23T11:46:15;13.40;49.60
11239;DHT22;5677;48.488;13.436;2024-02-23T11:48:42;13.40;49.60
11239;DHT22;5677;48.488;13.436;2024-02-23T11:51:10;13.40;49.60
11239;DHT22;5677;48.488;13.436;2024-02-23T11:53:37;13.30;49.60
11239;DHT22;5677;48.488;13.436;2024-02-23T11:56:05;13.40;49.60
11239;DHT22;5677;48.488;13.436;2024-02-23T11:58:32;13.40;49.60
11239;DHT22;5677;48.488;13.436;2024-02-23T12:00:59;13.30;49.60
11239;DHT22;5677;48.488;13.436;2024-02-23T12:03:28;13.30;49.60
11239;DHT22;5677;48.488;13.436;2024-02-23T12:05:56;13.30;49.60
11239;DHT22;5677;48.488;13.436;2024-02-23T12:08:24;13.30;49.60
11239;DHT22;5677;48.488;13.436;2024-02-23T12:10:53;13.30;49.60
11239;DHT22;5677;48.488;13.436;2024-02-23T12:13:20;13.30;49.70
11239;DHT22;5677;48.488;13.436;2024-02-23T12:15:47;13.30;49.70
11239;DHT22;5677;48.488;13.436;2024-02-23T12:18:14;13.30;49.70
11239;DHT22;5677;48.488;13.436;2024-02-23T12:20:41;13.30;49.70
11239;DHT22;5677;48.488;13.436;2024-02-23T12:23:07;13.30;49.70
11239;DHT22;5677;48.488;13.436;2024-02-23T12:25:38;13.30;49.70
11239;DHT22;5677;48.488;13.436;2024-02-23T12:28:05;13.30;49.70
11239;DHT22;5677;48.488;13.436;2024-02-23T12:30:32;13.30;49.80
11239;DHT22;5677;48.488;13.436;2024-02-23T12:33:05;13.30;49.80
11239;DHT22;5677;48.488;13.436;2024-02-23T12:35:33;13.30;49.80
11239;DHT22;5677;48.488;13.436;2024-02-23T12:38:00;13.30;49.80
11239;DHT22;5677;48.488;13.436;2024-02-23T12:40:27;13.30;49.80
11239;DHT22;5677;48.488;13.436;2024-02-23T12:42:56;13.20;49.70
11239;DHT22;5677;48.488;13.436;2024-02-23T12:45:22;13.30;49.80
11239;DHT22;5677;48.488;13.436;2024-02-23T12:47:49;13.30;49.80
11239;DHT22;5677;48.488;13.436;2024-02-23T12:50:16;13.20;49.70
11239;DHT22;5677;48.488;13.436;2024-02-23T12:52:42;13.30;49.80
11239;DHT22;5677;48.488;13.436;2024-02-23T12:55:10;13.30;49.80
11239;DHT22;5677;48.488;13.436;2024-02-23T12:57:36;13.20;49.70
11239;DHT22;5677;48.488;13.436;2024-02-23T13:00:06;13.20;49.70
11239;DHT22;5677;48.488;13.436;2024-02-23T13:02:33;13.20;49.80
11239;DHT22;5677;48.488;13.436;2024-02-23T13:05:00;13.30;49.90
11239;DHT22;5677;48.488;13.436;2024-02-23T13:07:27;13.20;49.80
11239;DHT22;5677;48.488;13.436;2024-02-23T13:09:54;13.20;49.80
11239;DHT22;5677;48.488;13.436;2024-02-23T13:12:20;13.30;50.00
11239;DHT22;5677;48.488;13.436;2024-02-23T13:14:47;13.20;49.80
11239;DHT22;5677;48.488;13.436;2024-02-23T13:17:15;13.20;50.50
11239;DHT22;5677;48.488;13.436;2024-02-23T13:19:42;13.20;49.80
11239;DHT22;5677;48.488;13.436;2024-02-23T13:22:09;13.30;49.90
11239;DHT22;5677;48.488;13.436;2024-02-23T13:24:36;13.20;49.80
11239;DHT22;5677;48.488;13.436;2024-02-23T13:27:05;13.20;49.80
11239;DHT22;5677;48.488;13.436;2024-02-23T13:29:32;13.20;49.80
11239;DHT22;5677;48.488;13.436;2024-02-23T13:31:59;13.20;49.80
11239;DHT22;5677;48.488;13.436;2024-02-23T13:34:27;13.30;50.00
11239;DHT22;5677;48.488;13.436;2024-02-23T13:36:53;13.20;49.90
11239;DHT22;5677;48.488;13.436;2024-02-23T13:39:20;13.20;49.90
11239;DHT22;5677;48.488;13.436;2024-02-23T13:41:47;13.20;49.90
11239;DHT22;5677;48.488;13.436;2024-02-23T13:44:13;13.20;49.90
11239;DHT22;5677;48.488;13.436;2024-02-23T13:46:40;13.20;49.90
11239;DHT22;5677;48.488;13.436;2024-02-23T13:49:08;13.20;49.90
11239;DHT22;5677;48.488;13.436;2024-02-23T13:51:36;13.20;49.90
11239;DHT22;5677;48.488;13.436;2024-02-23T13:54:03;13.20;49.90
11239;DHT22;5677;48.488;13.436;2024-02-23T13:56:30;13.20;49.90
11239;DHT22;5677;48.488;13.436;2024-02-23T13:58:57;13.20;49.90
11239;DHT22;5677;48.488;13.436;2024-02-23T14:01:23;13.20;50.00
11239;DHT22;5677;48.488;13.436;2024-02-23T14:03:51;13.20;50.00
11239;DHT22;5677;48.488;13.436;2024-02-23T14:06:17;13.20;50.00
11239;DHT22;5677;48.488;13.436;2024-02-23T14:08:45;13.20;50.00
11239;DHT22;5677;48.488;13.436;2024-02-23T14:11:13;13.20;50.10
11239;DHT22;5677;48.488;13.436;2024-02-23T14:13:40;13.20;50.00
11239;DHT22;5677;48.488;13.436;2024-02-23T14:16:06;13.20;50.10
11239;DHT22;5677;48.488;13.436;2024-02-23T14:18:33;13.20;50.10
11239;DHT22;5677;48.488;13.436;2024-02-23T14:21:04;13.20;50.00
11239;DHT22;5677;48.488;13.436;2024-02-23T14:23:30;13.20;50.00
11239;DHT22;5677;48.488;13.436;2024-02-23T14:25:58;13.20;50.10
11239;DHT22;5677;48.488;13.436;2024-02-23T14:28:25;13.20;50.10
11239;DHT22;5677;48.488;13.436;2024-02-23T14:30:52;13.10;50.10
11239;DHT22;5677;48.488;13.436;2024-02-23T14:33:19;13.10;50.10
11239;DHT22;5677;48.488;13.436;2024-02-23T14:35:46;13.20;50.10
11239;DHT22;5677;48.488;13.436;2024-02-23T14:38:12;13.10;50.10
11239;DHT22;5677;48.488;13.436;2024-02-23T14:40:39;13.10;50.10
11239;DHT22;5677;48.488;13.436;2024-02-23T14:43:07;13.10;50.10
11239;DHT22;5677;48.488;13.436;2024-02-23T14:45:35;13.10;50.20
11239;DHT22;5677;48.488;13.436;2024-02-23T14:48:02;13.10;50.20
11239;DHT22;5677;48.488;13.436;2024-02-23T14:50:29;13.10;50.10
11239;DHT22;5677;48.488;13.436;2024-02-23T14:52:56;13.10;50.10
11239;DHT22;5677;48.488;13.436;2024-02-23T14:55:23;13.10;50.20
11239;DHT22;5677;48.488;13.436;2024-02-23T14:57:49;13.10;50.10
11239;DHT22;5677;48.488;13.436;2024-02-23T15:00:18;13.10;50.20
11239;DHT22;5677;48.488;13.436;2024-02-23T15:02:45;13.10;50.20
11239;DHT22;5677;48.488;13.436;2024-02-23T15:05:11;13.10;50.20
11239;DHT22;5677;48.488;13.436;2024-02-23T15:07:38;13.10;50.20
11239;DHT22;5677;48.488;13.436;2024-02-23T15:10:06;13.10;50.20
11239;DHT22;5677;48.488;13.436;2024-02-23T15:12:34;13.10;50.20
11239;DHT22;5677;48.488;13.436;2024-02-23T15:15:01;13.10;50.20
11239;DHT22;5677;48.488;13.436;2024-02-23T15:17:31;13.10;50.20
11239;DHT22;5677;48.488;13.436;2024-02-23T15:19:57;13.10;50.20
11239;DHT22;5677;48.488;13.436;2024-02-23T15:22:24;13.10;50.20
11239;DHT22;5677;48.488;13.436;2024-02-23T15:24:51;13.10;50.20
11239;DHT22;5677;48.488;13.436;2024-02-23T15:27:18;13.10;50.20
11239;DHT22;5677;48.488;13.436;2024-02-23T15:29:45;13.10;50.20